createdAt,value
2023-02-01T00:00:13.987Z,19.20
2023-02-01T00:02:44.808Z,19.20
2023-02-01T00:05:15.943Z,19.20
2023-02-01T00:07:48.124Z,19.20
2023-02-01T00:10:19.340Z,19.20
2023-02-01T00:12:50.185Z,19.20
2023-02-01T00:15:21.603Z,19.20
2023-02-01T00:17:53.578Z,19.30
2023-02-01T00:20:24.296Z,19.30
2023-02-01T00:22:54.980Z,19.30
2023-02-01T00:25:27.306Z,19.40
2023-02-01T00:28:03.496Z,19.30
2023-02-01T00:30:34.239Z,19.30
2023-02-01T00:33:04.968Z,19.30
2023-02-01T00:35:36.945Z,19.40
2023-02-01T00:38:07.647Z,19.40
2023-02-01T00:40:38.426Z,19.40
2023-02-01T00:43:09.246Z,19.40
2023-02-01T00:45:39.907Z,19.50
2023-02-01T00:48:10.902Z,19.60
2023-02-01T00:50:46.659Z,19.60
2023-02-01T00:53:17.598Z,19.60
2023-02-01T00:55:52.161Z,19.70
2023-02-01T00:58:23.241Z,19.80
2023-02-01T01:00:55.449Z,19.90
2023-02-01T01:03:26.169Z,19.90
2023-02-01T01:06:00.242Z,20.00
2023-02-01T01:08:31.555Z,20.10
2023-02-01T01:11:03.759Z,20.10
2023-02-01T01:13:34.422Z,20.20
2023-02-01T01:16:07.349Z,20.20
2023-02-01T01:18:38.980Z,20.30
2023-02-01T01:21:12.641Z,20.30
2023-02-01T01:23:45.185Z,20.40
2023-02-01T01:26:21.357Z,20.50
2023-02-01T01:28:53.562Z,20.50
2023-02-01T01:31:26.060Z,20.60
2023-02-01T01:34:01.030Z,20.60
2023-02-01T01:36:31.865Z,20.70
2023-02-01T01:39:02.562Z,20.80
2023-02-01T01:41:35.491Z,20.90
2023-02-01T01:44:08.650Z,20.90
2023-02-01T01:46:42.783Z,20.90
2023-02-01T01:49:34.005Z,21.00
2023-02-01T01:52:05.899Z,21.10
2023-02-01T01:54:42.231Z,21.10
2023-02-01T01:57:15.574Z,21.20
2023-02-01T01:59:48.716Z,21.20
2023-02-01T02:02:20.023Z,21.30
2023-02-01T02:04:53.900Z,21.40
2023-02-01T02:07:33.729Z,21.40
2023-02-01T02:10:08.218Z,21.50
2023-02-01T02:12:40.292Z,21.50
2023-02-01T02:15:16.603Z,21.60
2023-02-01T02:18:15.234Z,21.60
2023-02-01T02:20:54.310Z,21.70
2023-02-01T02:23:43.884Z,21.80
2023-02-01T02:26:32.353Z,21.80
2023-02-01T02:29:31.893Z,21.90
2023-02-01T02:32:20.331Z,22.00
2023-02-01T02:35:02.334Z,22.10
2023-02-01T02:37:53.491Z,22.10
2023-02-01T02:40:42.260Z,22.20
2023-02-01T02:43:36.754Z,22.30
2023-02-01T02:46:39.824Z,22.30
2023-02-01T02:49:25.230Z,22.40
2023-02-01T02:52:16.163Z,22.50
2023-02-01T02:54:49.329Z,22.60
2023-02-01T02:57:52.580Z,22.70
2023-02-01T03:00:43.583Z,22.70
2023-02-01T03:03:33.297Z,22.80
2023-02-01T03:06:04.314Z,22.90
2023-02-01T03:08:35.727Z,23.00
2023-02-01T03:11:15.382Z,23.10
2023-02-01T03:13:54.625Z,23.20
2023-02-01T03:16:39.613Z,23.30
2023-02-01T03:19:19.068Z,23.40
2023-02-01T03:21:57.966Z,23.50
2023-02-01T03:24:32.536Z,23.60
2023-02-01T03:27:08.697Z,23.70
2023-02-01T03:30:00.044Z,23.70
2023-02-01T03:32:31.028Z,23.80
2023-02-01T03:35:01.852Z,23.90
2023-02-01T03:37:32.621Z,24.00
2023-02-01T03:40:09.290Z,24.00
2023-02-01T03:42:42.610Z,24.10
2023-02-01T03:45:27.724Z,24.20
2023-02-01T03:48:02.155Z,24.40
2023-02-01T03:50:35.099Z,24.50
2023-02-01T03:53:14.426Z,24.60
2023-02-01T03:55:46.620Z,24.70
2023-02-01T03:58:19.681Z,24.80
2023-02-01T04:01:01.818Z,24.80
2023-02-01T04:03:34.347Z,25.00
2023-02-01T04:06:05.029Z,25.00
2023-02-01T04:08:35.952Z,25.10
2023-02-01T04:11:08.896Z,25.20
2023-02-01T04:13:40.156Z,25.30
2023-02-01T04:16:10.952Z,25.50
2023-02-01T04:18:42.550Z,25.60
2023-02-01T04:21:13.715Z,25.70
2023-02-01T04:23:44.588Z,25.80
2023-02-01T04:26:16.053Z,25.90
2023-02-01T04:28:48.744Z,26.00
2023-02-01T04:31:21.640Z,26.00
2023-02-01T04:33:56.982Z,26.10
2023-02-01T04:36:29.216Z,26.20
2023-02-01T04:39:01.160Z,26.30
2023-02-01T04:41:33.358Z,26.40
2023-02-01T04:44:04.290Z,28.20
2023-02-01T04:46:34.940Z,26.60
2023-02-01T04:51:40.217Z,26.80
2023-02-01T04:54:12.648Z,27.00
2023-02-01T04:56:43.727Z,27.10
2023-02-01T04:59:15.245Z,27.20
2023-02-01T05:01:49.367Z,27.30
2023-02-01T05:04:23.310Z,27.40
2023-02-01T05:06:54.057Z,27.50
2023-02-01T05:09:24.778Z,27.60
2023-02-01T05:12:13.156Z,27.60
2023-02-01T05:14:45.621Z,27.70
2023-02-01T05:17:16.782Z,27.80
2023-02-01T05:19:48.242Z,27.80
2023-02-01T05:22:18.903Z,27.90
2023-02-01T05:24:49.623Z,28.00
2023-02-01T05:29:54.503Z,28.00
2023-02-01T05:32:26.127Z,28.20
2023-02-01T05:34:59.744Z,28.20
2023-02-01T05:40:03.132Z,28.30
2023-02-01T05:47:34.500Z,28.70
2023-02-01T05:50:05.894Z,28.60
2023-02-01T05:52:36.543Z,28.60
2023-02-01T05:55:08.111Z,28.70
2023-02-01T05:57:38.745Z,28.70
2023-02-01T06:00:11.172Z,28.70
2023-02-01T06:02:42.759Z,28.80
2023-02-01T06:05:13.690Z,28.80
2023-02-01T06:07:47.369Z,28.80
2023-02-01T06:10:18.652Z,28.90
2023-02-01T06:12:49.486Z,28.90
2023-02-01T06:15:22.034Z,29.00
2023-02-01T06:17:53.003Z,29.00
2023-02-01T06:20:25.693Z,29.00
2023-02-01T06:22:56.647Z,28.90
2023-02-01T06:25:28.281Z,28.90
2023-02-01T06:27:59.102Z,29.00
2023-02-01T06:30:29.930Z,29.00
2023-02-01T06:33:01.685Z,29.20
2023-02-01T06:35:32.358Z,29.20
2023-02-01T06:38:03.075Z,29.30
2023-02-01T06:40:33.786Z,29.40
2023-02-01T06:43:04.624Z,29.40
2023-02-01T07:03:56.845Z,29.70
2023-02-01T07:08:59.012Z,29.70
2023-02-01T07:11:30.352Z,29.80
2023-02-01T07:14:02.691Z,29.80
2023-02-01T07:19:08.261Z,29.80
2023-02-01T07:21:39.318Z,29.80
2023-02-01T07:24:14.978Z,30.00
2023-02-01T07:26:47.264Z,29.80
2023-02-01T07:29:20.281Z,29.90
2023-02-01T07:31:51.704Z,29.90
2023-02-01T07:34:35.101Z,29.80
2023-02-01T07:37:05.948Z,29.70
2023-02-01T07:39:41.346Z,29.60
2023-02-01T07:42:12.863Z,29.70
2023-02-01T07:44:43.556Z,29.50
2023-02-01T07:47:14.308Z,29.50
2023-02-01T07:49:45.123Z,29.50
2023-02-01T07:52:17.294Z,29.40
2023-02-01T07:55:04.922Z,29.40
2023-02-01T07:57:35.563Z,29.30
2023-02-01T08:00:27.061Z,29.30
2023-02-01T08:02:58.125Z,29.30
2023-02-01T08:05:29.168Z,29.20
2023-02-01T08:08:02.941Z,29.20
2023-02-01T08:10:38.537Z,29.10
2023-02-01T08:13:09.403Z,29.00
2023-02-01T08:15:51.732Z,28.90
2023-02-01T08:18:23.459Z,29.00
2023-02-01T08:20:56.093Z,28.90
2023-02-01T08:23:28.204Z,29.00
2023-02-01T08:26:00.340Z,28.90
2023-02-01T08:28:35.465Z,28.90
2023-02-01T08:31:16.151Z,28.90
2023-02-01T08:33:49.841Z,28.90
2023-02-01T08:36:21.202Z,28.80
2023-02-01T08:38:57.499Z,28.80
2023-02-01T08:41:32.005Z,28.80
2023-02-01T08:44:21.146Z,28.90
2023-02-01T08:46:52.558Z,28.80
2023-02-01T08:49:25.692Z,28.80
2023-02-01T08:52:03.830Z,28.80
2023-02-01T08:54:31.501Z,28.80
2023-02-01T08:57:04.759Z,28.90
2023-02-01T08:59:35.618Z,28.80
2023-02-01T09:02:15.706Z,28.80
2023-02-01T09:04:46.379Z,28.90
2023-02-01T09:07:20.497Z,28.90
2023-02-01T09:10:17.221Z,29.00
2023-02-01T09:12:44.344Z,28.90
2023-02-01T09:15:19.543Z,29.00
2023-02-01T09:17:59.827Z,28.90
2023-02-01T09:20:33.775Z,29.00
2023-02-01T09:26:26.344Z,29.00
2023-02-01T09:28:56.046Z,29.00
2023-02-01T09:31:32.282Z,28.90
2023-02-01T09:34:04.438Z,28.90
2023-02-01T09:36:36.766Z,28.90
2023-02-01T09:39:13.676Z,28.90
2023-02-01T09:45:24.524Z,28.80
2023-02-01T09:47:58.910Z,28.70
2023-02-01T09:50:43.415Z,28.90
2023-02-01T09:53:31.776Z,28.70
2023-02-01T09:56:07.793Z,28.70
2023-02-01T10:04:39.301Z,28.50
2023-02-01T10:07:35.397Z,28.40
2023-02-01T10:10:17.189Z,28.40
2023-02-01T10:13:13.345Z,28.40
2023-02-01T10:16:25.471Z,28.40
2023-02-01T10:19:13.529Z,28.30
2023-02-01T10:21:54.442Z,28.30
2023-02-01T10:24:52.308Z,28.20
2023-02-01T10:27:30.554Z,28.20
2023-02-01T10:30:04.377Z,28.10
2023-02-01T10:32:41.605Z,28.10
2023-02-01T10:35:21.626Z,28.00
2023-02-01T10:37:53.151Z,27.90
2023-02-01T10:40:26.940Z,27.90
2023-02-01T10:43:04.079Z,27.80
2023-02-01T10:45:36.868Z,27.80
2023-02-01T10:48:08.226Z,27.70
2023-02-01T10:50:43.985Z,27.70
2023-02-01T10:53:26.458Z,27.60
2023-02-01T10:55:58.513Z,27.60
2023-02-01T10:58:34.955Z,27.60
2023-02-01T11:01:20.880Z,27.50
2023-02-01T11:04:06.507Z,27.50
2023-02-01T11:06:49.462Z,27.50
2023-02-01T11:09:30.095Z,27.40
2023-02-01T11:12:06.093Z,27.30
2023-02-01T11:14:42.374Z,27.30
2023-02-01T11:17:28.422Z,27.20
2023-02-01T11:20:09.653Z,27.10
2023-02-01T11:22:42.024Z,27.00
2023-02-01T11:25:17.941Z,27.00
2023-02-01T11:27:54.755Z,27.00
2023-02-01T11:36:45.884Z,26.80
2023-02-01T11:39:29.829Z,26.70
2023-02-01T11:42:07.503Z,26.70
2023-02-01T11:47:34.925Z,26.60
2023-02-01T11:50:10.243Z,26.50
2023-02-01T11:52:46.354Z,26.50
2023-02-01T11:55:29.012Z,26.40
2023-02-01T11:58:11.243Z,26.40
2023-02-01T12:01:08.507Z,26.30
2023-02-01T12:03:51.018Z,26.40
2023-02-01T12:06:24.249Z,26.30
2023-02-01T12:09:21.354Z,26.30
2023-02-01T12:12:03.460Z,26.20
2023-02-01T12:15:09.558Z,26.20
2023-02-01T12:17:40.434Z,26.20
2023-02-01T12:20:19.663Z,26.20
2023-02-01T12:22:55.711Z,26.20
2023-02-01T12:25:31.271Z,26.20
2023-02-01T12:28:29.447Z,26.20
2023-02-01T12:30:57.010Z,26.10
2023-02-01T12:33:39.038Z,26.20
2023-02-01T12:36:21.112Z,26.10
2023-02-01T12:39:09.252Z,26.00
2023-02-01T12:41:51.845Z,26.00
2023-02-01T12:44:27.930Z,25.90
2023-02-01T12:47:16.133Z,25.80
2023-02-01T12:49:58.969Z,25.90
2023-02-01T12:52:53.711Z,25.90
2023-02-01T12:55:54.976Z,25.80
2023-02-01T12:58:28.917Z,25.80
2023-02-01T13:01:11.577Z,25.80
2023-02-01T13:04:02.221Z,25.80
2023-02-01T13:06:41.175Z,25.80
2023-02-01T13:09:32.810Z,25.80
2023-02-01T13:12:07.438Z,25.80
2023-02-01T13:14:40.725Z,25.80
2023-02-01T13:17:20.101Z,25.70
2023-02-01T13:20:19.140Z,25.70
2023-02-01T13:22:55.398Z,25.70
2023-02-01T13:25:52.845Z,25.60
2023-02-01T13:28:29.880Z,25.60
2023-02-01T13:31:37.104Z,25.60
2023-02-01T13:34:28.333Z,25.60
2023-02-01T13:37:18.284Z,25.50
2023-02-01T13:40:09.185Z,25.50
2023-02-01T13:42:55.048Z,25.50
2023-02-01T13:45:28.297Z,25.50
2023-02-01T13:48:03.701Z,25.40
2023-02-01T13:50:38.771Z,25.40
2023-02-01T13:53:17.875Z,25.30
2023-02-01T13:55:50.705Z,25.40
2023-02-01T13:58:35.693Z,25.30
2023-02-01T14:01:25.772Z,25.30
2023-02-01T14:04:05.408Z,25.30
2023-02-01T14:06:47.307Z,25.20
2023-02-01T14:09:21.225Z,25.30
2023-02-01T14:11:54.531Z,25.20
2023-02-01T14:14:27.851Z,25.20
2023-02-01T14:17:01.683Z,25.20
2023-02-01T14:19:34.660Z,25.10
2023-02-01T14:22:19.583Z,25.10
2023-02-01T14:24:58.545Z,25.10
2023-02-01T14:27:32.057Z,25.10
2023-02-01T14:30:05.662Z,25.10
2023-02-01T14:32:43.055Z,25.10
2023-02-01T14:35:30.422Z,25.00
2023-02-01T14:38:14.194Z,25.00
2023-02-01T14:40:45.206Z,25.00
2023-02-01T14:43:32.238Z,24.90
2023-02-01T14:45:53.029Z,24.90
2023-02-01T14:48:29.186Z,24.90
2023-02-01T14:51:01.591Z,24.80
2023-02-01T14:53:37.968Z,24.80
2023-02-01T14:56:22.174Z,24.80
2023-02-01T14:58:58.198Z,24.80
2023-02-01T15:01:31.885Z,24.80
2023-02-01T15:04:18.851Z,24.70
2023-02-01T15:06:49.751Z,24.60
2023-02-01T15:09:26.012Z,24.60
2023-02-01T15:12:05.314Z,24.60
2023-02-01T15:14:38.553Z,24.50
2023-02-01T15:17:23.762Z,24.50
2023-02-01T15:19:59.593Z,24.50
2023-02-01T15:22:31.626Z,24.40
2023-02-01T15:25:05.346Z,24.40
2023-02-01T15:27:37.336Z,24.30
2023-02-01T15:30:13.041Z,24.20
2023-02-01T15:32:47.190Z,24.20
2023-02-01T15:35:42.708Z,24.20
2023-02-01T15:38:30.654Z,24.10
2023-02-01T15:41:09.783Z,24.10
2023-02-01T15:43:48.933Z,24.10
2023-02-01T15:46:23.723Z,24.00
2023-02-01T15:48:56.400Z,24.00
2023-02-01T15:51:29.950Z,24.00
2023-02-01T15:54:10.066Z,23.90
2023-02-01T15:56:43.368Z,23.90
2023-02-01T15:59:24.867Z,23.90
2023-02-01T16:01:57.883Z,23.80
2023-02-01T16:04:37.501Z,23.70
2023-02-01T16:07:12.910Z,23.70
2023-02-01T16:09:45.740Z,23.60
2023-02-01T16:12:24.779Z,23.60
2023-02-01T16:14:55.475Z,23.50
2023-02-01T16:17:26.169Z,23.50
2023-02-01T16:20:00.305Z,23.50
2023-02-01T16:22:31.402Z,23.40
2023-02-01T16:25:03.488Z,23.40
2023-02-01T16:27:35.631Z,23.30
2023-02-01T16:30:07.014Z,23.30
2023-02-01T16:32:43.637Z,23.30
2023-02-01T16:35:21.664Z,23.30
2023-02-01T16:37:53.482Z,23.20
2023-02-01T16:40:27.620Z,23.30
2023-02-01T16:42:58.588Z,23.20
2023-02-01T16:45:29.304Z,23.20
2023-02-01T16:48:01.245Z,23.20
2023-02-01T16:50:34.815Z,23.30
2023-02-01T16:53:05.826Z,23.30
2023-02-01T16:55:40.546Z,23.30
2023-02-01T16:58:11.378Z,23.20
2023-02-01T17:00:42.225Z,23.20
2023-02-01T17:03:16.300Z,23.20
2023-02-01T17:05:58.613Z,23.20
2023-02-01T17:08:41.363Z,23.20
2023-02-01T17:11:15.130Z,23.20
2023-02-01T17:13:47.567Z,23.10
2023-02-01T17:16:30.106Z,23.10
2023-02-01T17:19:06.517Z,23.10
2023-02-01T17:21:48.395Z,23.20
2023-02-01T17:24:21.317Z,23.10
2023-02-01T17:26:53.115Z,23.00
2023-02-01T17:29:27.497Z,23.00
2023-02-01T17:32:00.677Z,23.00
2023-02-01T17:34:34.524Z,23.00
2023-02-01T17:37:05.292Z,23.00
2023-02-01T17:39:53.673Z,23.00
2023-02-01T17:42:25.206Z,23.00
2023-02-01T17:45:01.252Z,23.00
2023-02-01T17:47:35.064Z,23.00
2023-02-01T17:50:05.892Z,23.00
2023-02-01T17:52:37.449Z,22.90
2023-02-01T17:55:23.851Z,22.90
2023-02-01T18:00:25.243Z,22.80
2023-02-01T18:02:57.393Z,22.70
2023-02-01T18:05:30.682Z,22.70
2023-02-01T18:08:01.398Z,22.70
2023-02-01T18:10:33.028Z,22.70
2023-02-01T18:13:04.905Z,22.70
2023-02-01T18:15:35.854Z,22.60
2023-02-01T18:18:06.617Z,22.60
2023-02-01T18:20:37.743Z,22.60
2023-02-01T18:23:10.325Z,22.60
2023-02-01T18:25:41.891Z,22.60
2023-02-01T18:28:12.838Z,22.60
2023-02-01T18:30:44.127Z,22.60
2023-02-01T18:33:17.381Z,22.60
2023-02-01T18:35:48.096Z,22.60
2023-02-01T18:38:19.647Z,22.70
2023-02-01T18:40:52.839Z,22.60
2023-02-01T18:43:24.096Z,22.60
2023-02-01T18:45:56.276Z,22.60
2023-02-01T18:48:27.165Z,22.60
2023-02-01T18:50:59.114Z,22.60
2023-02-01T18:53:29.908Z,22.60
2023-02-01T18:56:01.841Z,22.50
2023-02-01T18:58:36.849Z,22.40
2023-02-01T19:01:22.788Z,22.40
2023-02-01T19:03:55.947Z,22.30
2023-02-01T19:06:26.916Z,22.30
2023-02-01T19:08:58.778Z,22.30
2023-02-01T19:11:32.567Z,22.30
2023-02-01T19:14:03.285Z,22.30
2023-02-01T19:16:37.834Z,22.30
2023-02-01T19:19:08.499Z,22.30
2023-02-01T19:21:39.208Z,22.30
2023-02-01T19:24:10.722Z,22.30
2023-02-01T19:26:43.543Z,22.20
2023-02-01T19:29:14.199Z,22.20
2023-02-01T19:31:46.273Z,22.20
2023-02-01T19:34:18.211Z,22.20
2023-02-01T19:36:51.263Z,22.20
2023-02-01T19:39:22.589Z,22.20
2023-02-01T19:41:56.462Z,22.20
2023-02-01T19:44:27.174Z,22.20
2023-02-01T19:46:58.455Z,22.20
2023-02-01T19:49:29.383Z,22.10
2023-02-01T19:52:00.394Z,22.10
2023-02-01T19:54:31.067Z,22.10
2023-02-01T19:57:01.963Z,22.10
2023-02-01T19:59:33.142Z,22.10
2023-02-01T20:02:03.083Z,22.10
2023-02-01T20:04:33.992Z,22.10
2023-02-01T20:07:04.696Z,22.10
2023-02-01T20:09:36.956Z,22.10
2023-02-01T20:12:08.136Z,22.10
2023-02-01T20:14:39.533Z,22.10
2023-02-01T20:17:13.540Z,22.10
2023-02-01T20:19:44.221Z,22.00
2023-02-01T20:22:14.995Z,22.00
2023-02-01T20:24:45.705Z,21.90
2023-02-01T20:27:18.733Z,21.90
2023-02-01T20:29:50.130Z,21.90
2023-02-01T20:32:21.280Z,21.90
2023-02-01T20:34:53.752Z,21.90
2023-02-01T20:37:24.641Z,22.00
2023-02-01T20:39:55.635Z,21.90
2023-02-01T20:42:26.312Z,22.00
2023-02-01T20:44:58.146Z,22.00
2023-02-01T20:47:28.903Z,22.00
2023-02-01T20:50:00.766Z,22.00
2023-02-01T20:52:31.457Z,22.00
2023-02-01T20:55:02.163Z,22.10
2023-02-01T20:57:32.857Z,22.10
2023-02-01T21:00:05.730Z,22.10
2023-02-01T21:02:36.044Z,22.10
2023-02-01T21:05:07.088Z,22.00
2023-02-01T21:07:38.856Z,21.90
2023-02-01T21:10:11.608Z,21.90
2023-02-01T21:12:42.494Z,21.90
2023-02-01T21:15:13.532Z,21.90
2023-02-01T21:17:44.195Z,21.90
2023-02-01T21:20:15.813Z,21.90
2023-02-01T21:22:46.497Z,21.90
2023-02-01T21:25:17.426Z,21.90
2023-02-01T21:27:49.355Z,21.90
2023-02-01T21:30:20.158Z,21.90
2023-02-01T21:32:53.473Z,21.90
2023-02-01T21:35:24.438Z,21.90
2023-02-01T21:37:58.361Z,21.90
2023-02-01T21:40:29.060Z,21.80
2023-02-01T21:42:59.746Z,21.80
2023-02-01T21:45:30.429Z,21.80
2023-02-01T21:48:03.017Z,21.80
2023-02-01T21:50:33.800Z,21.80
2023-02-01T21:53:07.111Z,21.80
2023-02-01T21:55:39.923Z,21.80
2023-02-01T21:58:11.968Z,21.90
2023-02-01T22:00:44.627Z,21.80
2023-02-01T22:03:16.031Z,21.80
2023-02-01T22:05:47.956Z,21.80
2023-02-01T22:08:18.638Z,21.80
2023-02-01T22:10:49.341Z,21.70
2023-02-01T22:13:21.392Z,21.70
2023-02-01T22:15:53.356Z,21.70
2023-02-01T22:18:24.139Z,21.70
2023-02-01T22:20:57.502Z,21.70
2023-02-01T22:23:29.656Z,21.70
2023-02-01T22:26:10.107Z,21.60
2023-02-01T22:28:41.390Z,21.60
2023-02-01T22:31:13.942Z,21.50
2023-02-01T22:33:44.673Z,21.50
2023-02-01T22:36:17.200Z,21.50
2023-02-01T22:38:50.598Z,21.50
2023-02-01T22:41:22.206Z,21.50
2023-02-01T22:43:53.074Z,21.50
2023-02-01T22:46:27.092Z,21.50
2023-02-01T22:49:00.427Z,21.40
2023-02-01T22:51:33.109Z,21.30
2023-02-01T22:54:06.971Z,21.30
2023-02-01T22:56:39.696Z,21.30
2023-02-01T22:59:13.420Z,21.20
2023-02-01T23:01:44.539Z,21.20
2023-02-01T23:04:17.329Z,21.20
2023-02-01T23:06:48.606Z,21.20
2023-02-01T23:09:22.181Z,21.20
2023-02-01T23:11:53.078Z,21.20
2023-02-01T23:14:23.985Z,21.10
2023-02-01T23:16:55.075Z,21.00
2023-02-01T23:19:25.971Z,21.00
2023-02-01T23:21:59.635Z,20.90
2023-02-01T23:24:31.319Z,20.90
2023-02-01T23:27:06.072Z,20.90
2023-02-01T23:29:37.924Z,20.80
2023-02-01T23:32:08.927Z,20.80
2023-02-01T23:34:41.653Z,20.70
2023-02-01T23:37:12.331Z,20.60
2023-02-01T23:39:42.999Z,20.60
2023-02-01T23:42:16.141Z,20.60
2023-02-01T23:44:47.938Z,20.60
2023-02-01T23:47:18.641Z,20.60
2023-02-01T23:49:51.190Z,20.60
2023-02-01T23:52:21.889Z,20.60
2023-02-01T23:54:52.542Z,20.60
2023-02-01T23:57:23.530Z,20.60
2023-02-01T23:59:58.258Z,20.50
